sensor_id;sensor_type;location;lat;lon;timestamp;temperature;humidity
3275;DHT22;1649;53.672;10.064;2023-09-19T00:00:34;16.40;99.90
3275;DHT22;1649;53.672;10.064;2023-09-19T00:03:01;16.40;99.90
3275;DHT22;1649;53.672;10.064;2023-09-19T00:05:28;16.50;99.90
3275;DHT22;1649;53.672;10.064;2023-09-19T00:07:55;16.50;99.90
3275;DHT22;1649;53.672;10.064;2023-09-19T00:10:27;16.40;99.90
3275;DHT22;1649;53.672;10.064;2023-09-19T00:12:55;16.30;99.90
3275;DHT22;1649;53.672;10.064;2023-09-19T00:15:22;16.30;99.90
3275;DHT22;1649;53.672;10.064;2023-09-19T00:17:48;16.30;99.90
3275;DHT22;1649;53.672;10.064;2023-09-19T00:20:14;16.30;99.90
3275;DHT22;1649;53.672;10.064;2023-09-19T00:22:44;16.20;99.90
3275;DHT22;1649;53.672;10.064;2023-09-19T00:25:10;16.20;99.90
3275;DHT22;1649;53.672;10.064;2023-09-19T00:27:37;16.20;99.90
3275;DHT22;1649;53.672;10.064;2023-09-19T00:30:08;16.10;99.90
3275;DHT22;1649;53.672;10.064;2023-09-19T00:32:40;16.10;99.90
3275;DHT22;1649;53.672;10.064;2023-09-19T00:35:06;16.10;99.90
3275;DHT22;1649;53.672;10.064;2023-09-19T00:37:33;16.10;99.90
3275;DHT22;1649;53.672;10.064;2023-09-19T00:39:58;16.10;99.90
3275;DHT22;1649;53.672;10.064;2023-09-19T00:42:24;16.00;99.90
3275;DHT22;1649;53.672;10.064;2023-09-19T00:44:51;16.00;99.90
3275;DHT22;1649;53.672;10.064;2023-09-19T00:47:18;16.00;99.90
3275;DHT22;1649;53.672;10.064;2023-09-19T00:49:45;15.90;99.90
3275;DHT22;1649;53.672;10.064;2023-09-19T00:52:18;16.00;99.90
3275;DHT22;1649;53.672;10.064;2023-09-19T00:54:47;16.00;99.90
3275;DHT22;1649;53.672;10.064;2023-09-19T00:57:13;16.00;99.90
3275;DHT22;1649;53.672;10.064;2023-09-19T00:59:41;16.00;99.90
3275;DHT22;1649;53.672;10.064;2023-09-19T01:02:07;15.90;99.90
3275;DHT22;1649;53.672;10.064;2023-09-19T01:04:34;15.90;99.90
3275;DHT22;1649;53.672;10.064;2023-09-19T01:06:59;16.00;99.90
3275;DHT22;1649;53.672;10.064;2023-09-19T01:09:25;16.00;99.90
3275;DHT22;1649;53.672;10.064;2023-09-19T01:11:53;16.00;99.90
3275;DHT22;1649;53.672;10.064;2023-09-19T01:14:34;16.00;99.90
3275;DHT22;1649;53.672;10.064;2023-09-19T01:17:30;16.00;99.90
3275;DHT22;1649;53.672;10.064;2023-09-19T01:23:48;16.00;99.90
3275;DHT22;1649;53.672;10.064;2023-09-19T01:26:37;16.00;99.90
3275;DHT22;1649;53.672;10.064;2023-09-19T01:29:23;16.00;99.90
3275;DHT22;1649;53.672;10.064;2023-09-19T01:31:59;16.00;99.90
3275;DHT22;1649;53.672;10.064;2023-09-19T01:34:43;16.00;99.90
3275;DHT22;1649;53.672;10.064;2023-09-19T01:40:43;15.90;99.90
3275;DHT22;1649;53.672;10.064;2023-09-19T01:43:21;15.80;99.90
3275;DHT22;1649;53.672;10.064;2023-09-19T01:46:13;15.80;99.90
3275;DHT22;1649;53.672;10.064;2023-09-19T01:49:08;15.80;99.90
3275;DHT22;1649;53.672;10.064;2023-09-19T01:52:02;15.80;99.90
3275;DHT22;1649;53.672;10.064;2023-09-19T01:54:36;15.80;99.90
3275;DHT22;1649;53.672;10.064;2023-09-19T01:57:13;15.80;99.90
3275;DHT22;1649;53.672;10.064;2023-09-19T02:00:00;15.80;99.90
3275;DHT22;1649;53.672;10.064;2023-09-19T02:02:34;15.90;99.90
3275;DHT22;1649;53.672;10.064;2023-09-19T02:05:01;15.90;99.90
3275;DHT22;1649;53.672;10.064;2023-09-19T02:07:26;15.90;99.90
3275;DHT22;1649;53.672;10.064;2023-09-19T02:09:52;15.90;99.90
3275;DHT22;1649;53.672;10.064;2023-09-19T02:12:18;15.90;99.90
3275;DHT22;1649;53.672;10.064;2023-09-19T02:14:43;15.90;99.90
3275;DHT22;1649;53.672;10.064;2023-09-19T02:17:09;15.80;99.90
3275;DHT22;1649;53.672;10.064;2023-09-19T02:19:37;15.70;99.90
3275;DHT22;1649;53.672;10.064;2023-09-19T02:22:04;15.70;99.90
3275;DHT22;1649;53.672;10.064;2023-09-19T02:24:35;15.60;99.90
3275;DHT22;1649;53.672;10.064;2023-09-19T02:27:00;15.60;99.90
3275;DHT22;1649;53.672;10.064;2023-09-19T02:29:29;15.50;99.90
3275;DHT22;1649;53.672;10.064;2023-09-19T02:31:55;15.50;99.90
3275;DHT22;1649;53.672;10.064;2023-09-19T02:34:21;15.50;99.90
3275;DHT22;1649;53.672;10.064;2023-09-19T02:36:47;15.50;99.90
3275;DHT22;1649;53.672;10.064;2023-09-19T02:39:12;15.50;99.90
3275;DHT22;1649;53.672;10.064;2023-09-19T02:41:38;15.40;99.90
3275;DHT22;1649;53.672;10.064;2023-09-19T02:44:04;15.40;99.90
3275;DHT22;1649;53.672;10.064;2023-09-19T02:46:36;15.40;99.90
3275;DHT22;1649;53.672;10.064;2023-09-19T02:49:02;15.40;99.90
3275;DHT22;1649;53.672;10.064;2023-09-19T02:51:30;15.40;99.90
3275;DHT22;1649;53.672;10.064;2023-09-19T02:53:56;15.40;99.90
3275;DHT22;1649;53.672;10.064;2023-09-19T02:56:21;15.40;99.90
3275;DHT22;1649;53.672;10.064;2023-09-19T02:58:48;15.40;99.90
3275;DHT22;1649;53.672;10.064;2023-09-19T03:01:13;15.40;99.90
3275;DHT22;1649;53.672;10.064;2023-09-19T03:03:39;15.50;99.90
3275;DHT22;1649;53.672;10.064;2023-09-19T03:06:06;15.40;99.90
3275;DHT22;1649;53.672;10.064;2023-09-19T03:08:34;15.50;99.90
3275;DHT22;1649;53.672;10.064;2023-09-19T03:11:03;15.50;99.90
3275;DHT22;1649;53.672;10.064;2023-09-19T03:13:33;15.50;99.90
3275;DHT22;1649;53.672;10.064;2023-09-19T03:15:59;15.60;99.90
3275;DHT22;1649;53.672;10.064;2023-09-19T03:18:25;15.60;99.90
3275;DHT22;1649;53.672;10.064;2023-09-19T03:20:55;15.60;99.90
3275;DHT22;1649;53.672;10.064;2023-09-19T03:23:21;15.60;99.90
3275;DHT22;1649;53.672;10.064;2023-09-19T03:25:46;15.70;99.90
3275;DHT22;1649;53.672;10.064;2023-09-19T03:28:13;15.70;99.90
3275;DHT22;1649;53.672;10.064;2023-09-19T03:30:38;15.70;99.90
3275;DHT22;1649;53.672;10.064;2023-09-19T03:33:04;15.70;99.90
3275;DHT22;1649;53.672;10.064;2023-09-19T03:35:30;15.60;99.90
3275;DHT22;1649;53.672;10.064;2023-09-19T03:37:55;15.70;99.90
3275;DHT22;1649;53.672;10.064;2023-09-19T03:40:21;15.70;99.90
3275;DHT22;1649;53.672;10.064;2023-09-19T03:42:48;15.60;99.90
3275;DHT22;1649;53.672;10.064;2023-09-19T03:45:14;15.70;99.90
3275;DHT22;1649;53.672;10.064;2023-09-19T03:47:41;15.60;99.90
3275;DHT22;1649;53.672;10.064;2023-09-19T03:50:07;15.50;99.90
3275;DHT22;1649;53.672;10.064;2023-09-19T03:52:36;15.50;99.90
3275;DHT22;1649;53.672;10.064;2023-09-19T03:55:01;15.40;99.90
3275;DHT22;1649;53.672;10.064;2023-09-19T03:57:31;15.40;99.90
3275;DHT22;1649;53.672;10.064;2023-09-19T03:59:56;15.40;99.90
3275;DHT22;1649;53.672;10.064;2023-09-19T04:02:22;15.40;99.90
3275;DHT22;1649;53.672;10.064;2023-09-19T04:04:49;15.40;99.90
3275;DHT22;1649;53.672;10.064;2023-09-19T04:07:14;15.40;99.90
3275;DHT22;1649;53.672;10.064;2023-09-19T04:09:40;15.50;99.90
3275;DHT22;1649;53.672;10.064;2023-09-19T04:12:06;15.50;99.90
3275;DHT22;1649;53.672;10.064;2023-09-19T04:14:34;15.40;99.90
3275;DHT22;1649;53.672;10.064;2023-09-19T04:16:59;15.30;99.90
3275;DHT22;1649;53.672;10.064;2023-09-19T04:19:26;15.20;99.90
3275;DHT22;1649;53.672;10.064;2023-09-19T04:21:51;15.20;99.90
3275;DHT22;1649;53.672;10.064;2023-09-19T04:24:17;15.10;99.90
3275;DHT22;1649;53.672;10.064;2023-09-19T04:26:44;15.10;99.90
3275;DHT22;1649;53.672;10.064;2023-09-19T04:29:10;15.00;99.90
3275;DHT22;1649;53.672;10.064;2023-09-19T04:31:38;14.90;99.90
3275;DHT22;1649;53.672;10.064;2023-09-19T04:34:06;14.90;99.90
3275;DHT22;1649;53.672;10.064;2023-09-19T04:36:33;14.80;99.90
3275;DHT22;1649;53.672;10.064;2023-09-19T04:38:58;14.70;99.90
3275;DHT22;1649;53.672;10.064;2023-09-19T04:41:24;14.70;99.90
3275;DHT22;1649;53.672;10.064;2023-09-19T04:43:50;14.60;99.90
3275;DHT22;1649;53.672;10.064;2023-09-19T04:46:16;14.50;99.90
3275;DHT22;1649;53.672;10.064;2023-09-19T04:48:43;14.50;99.90
3275;DHT22;1649;53.672;10.064;2023-09-19T04:51:08;14.50;99.90
3275;DHT22;1649;53.672;10.064;2023-09-19T04:53:34;14.50;99.90
3275;DHT22;1649;53.672;10.064;2023-09-19T04:55:59;14.50;99.90
3275;DHT22;1649;53.672;10.064;2023-09-19T04:58:25;14.50;99.90
3275;DHT22;1649;53.672;10.064;2023-09-19T05:00:50;14.50;99.90
3275;DHT22;1649;53.672;10.064;2023-09-19T05:03:17;14.40;99.90
3275;DHT22;1649;53.672;10.064;2023-09-19T05:05:42;14.40;99.90
3275;DHT22;1649;53.672;10.064;2023-09-19T05:08:08;14.30;99.90
3275;DHT22;1649;53.672;10.064;2023-09-19T05:10:35;14.20;99.90
3275;DHT22;1649;53.672;10.064;2023-09-19T05:13:03;14.20;99.90
3275;DHT22;1649;53.672;10.064;2023-09-19T05:15:30;14.20;99.90
3275;DHT22;1649;53.672;10.064;2023-09-19T05:17:56;14.20;99.90
3275;DHT22;1649;53.672;10.064;2023-09-19T05:20:22;14.30;99.90
3275;DHT22;1649;53.672;10.064;2023-09-19T05:23:05;14.30;99.90
3275;DHT22;1649;53.672;10.064;2023-09-19T05:25:35;14.30;99.90
3275;DHT22;1649;53.672;10.064;2023-09-19T05:28:08;14.20;99.90
3275;DHT22;1649;53.672;10.064;2023-09-19T05:30:35;14.20;99.90
3275;DHT22;1649;53.672;10.064;2023-09-19T05:33:05;14.10;99.90
3275;DHT22;1649;53.672;10.064;2023-09-19T05:35:31;14.10;99.90
3275;DHT22;1649;53.672;10.064;2023-09-19T05:37:57;14.10;99.90
3275;DHT22;1649;53.672;10.064;2023-09-19T05:40:24;14.10;99.90
3275;DHT22;1649;53.672;10.064;2023-09-19T05:42:49;14.10;99.90
3275;DHT22;1649;53.672;10.064;2023-09-19T05:45:16;14.10;99.90
3275;DHT22;1649;53.672;10.064;2023-09-19T05:47:52;14.10;99.90
3275;DHT22;1649;53.672;10.064;2023-09-19T05:50:21;14.10;99.90
3275;DHT22;1649;53.672;10.064;2023-09-19T05:52:53;14.00;99.90
3275;DHT22;1649;53.672;10.064;2023-09-19T05:55:19;14.10;99.90
3275;DHT22;1649;53.672;10.064;2023-09-19T05:57:50;14.10;99.90
3275;DHT22;1649;53.672;10.064;2023-09-19T06:00:17;14.10;99.90
3275;DHT22;1649;53.672;10.064;2023-09-19T06:02:44;14.10;99.90
3275;DHT22;1649;53.672;10.064;2023-09-19T06:05:10;14.20;99.90
3275;DHT22;1649;53.672;10.064;2023-09-19T06:07:36;14.30;99.90
3275;DHT22;1649;53.672;10.064;2023-09-19T06:10:03;14.50;99.90
3275;DHT22;1649;53.672;10.064;2023-09-19T06:12:31;15.20;99.90
3275;DHT22;1649;53.672;10.064;2023-09-19T06:14:59;16.00;99.90
3275;DHT22;1649;53.672;10.064;2023-09-19T06:17:25;16.60;99.90
3275;DHT22;1649;53.672;10.064;2023-09-19T06:19:52;17.00;99.90
3275;DHT22;1649;53.672;10.064;2023-09-19T06:22:18;17.30;99.90
3275;DHT22;1649;53.672;10.064;2023-09-19T06:24:44;17.20;99.90
3275;DHT22;1649;53.672;10.064;2023-09-19T06:27:09;17.00;99.90
3275;DHT22;1649;53.672;10.064;2023-09-19T06:29:35;16.40;99.90
3275;DHT22;1649;53.672;10.064;2023-09-19T06:32:07;16.20;99.90
3275;DHT22;1649;53.672;10.064;2023-09-19T06:34:32;16.10;99.90
3275;DHT22;1649;53.672;10.064;2023-09-19T06:36:58;16.00;99.90
3275;DHT22;1649;53.672;10.064;2023-09-19T06:39:23;15.90;99.90
3275;DHT22;1649;53.672;10.064;2023-09-19T06:41:51;15.70;99.90
3275;DHT22;1649;53.672;10.064;2023-09-19T06:44:19;15.60;99.90
3275;DHT22;1649;53.672;10.064;2023-09-19T06:46:47;15.60;99.90
3275;DHT22;1649;53.672;10.064;2023-09-19T06:49:15;15.60;99.90
3275;DHT22;1649;53.672;10.064;2023-09-19T06:51:41;15.50;99.90
3275;DHT22;1649;53.672;10.064;2023-09-19T06:54:07;15.60;99.90
3275;DHT22;1649;53.672;10.064;2023-09-19T06:56:32;15.60;99.90
3275;DHT22;1649;53.672;10.064;2023-09-19T06:58:58;15.60;99.90
3275;DHT22;1649;53.672;10.064;2023-09-19T07:01:24;15.70;99.90
3275;DHT22;1649;53.672;10.064;2023-09-19T07:03:50;15.70;99.90
3275;DHT22;1649;53.672;10.064;2023-09-19T07:06:16;15.70;99.90
3275;DHT22;1649;53.672;10.064;2023-09-19T07:08:41;15.70;99.90
3275;DHT22;1649;53.672;10.064;2023-09-19T07:11:07;15.70;99.90
3275;DHT22;1649;53.672;10.064;2023-09-19T07:13:32;15.70;99.90
3275;DHT22;1649;53.672;10.064;2023-09-19T07:15:58;15.80;99.90
3275;DHT22;1649;53.672;10.064;2023-09-19T07:18:24;15.80;99.90
3275;DHT22;1649;53.672;10.064;2023-09-19T07:20:50;15.80;99.90
3275;DHT22;1649;53.672;10.064;2023-09-19T07:23:17;15.90;99.90
3275;DHT22;1649;53.672;10.064;2023-09-19T07:25:43;16.00;99.90
3275;DHT22;1649;53.672;10.064;2023-09-19T07:28:09;16.00;99.90
3275;DHT22;1649;53.672;10.064;2023-09-19T07:30:36;16.10;99.90
3275;DHT22;1649;53.672;10.064;2023-09-19T07:33:03;16.10;99.90
3275;DHT22;1649;53.672;10.064;2023-09-19T07:35:30;16.10;99.90
3275;DHT22;1649;53.672;10.064;2023-09-19T07:37:56;16.00;99.90
3275;DHT22;1649;53.672;10.064;2023-09-19T07:40:23;16.00;99.90
3275;DHT22;1649;53.672;10.064;2023-09-19T07:42:52;16.00;99.90
3275;DHT22;1649;53.672;10.064;2023-09-19T07:45:18;16.00;99.90
3275;DHT22;1649;53.672;10.064;2023-09-19T07:47:44;16.10;99.90
3275;DHT22;1649;53.672;10.064;2023-09-19T07:50:10;16.00;99.90
3275;DHT22;1649;53.672;10.064;2023-09-19T07:52:36;15.90;99.90
3275;DHT22;1649;53.672;10.064;2023-09-19T07:55:05;15.90;99.90
3275;DHT22;1649;53.672;10.064;2023-09-19T07:57:37;15.80;99.90
3275;DHT22;1649;53.672;10.064;2023-09-19T08:00:03;15.80;99.90
3275;DHT22;1649;53.672;10.064;2023-09-19T08:02:36;15.80;99.90
3275;DHT22;1649;53.672;10.064;2023-09-19T08:05:04;15.80;99.90
3275;DHT22;1649;53.672;10.064;2023-09-19T08:07:32;15.80;99.90
3275;DHT22;1649;53.672;10.064;2023-09-19T08:09:58;15.80;99.90
3275;DHT22;1649;53.672;10.064;2023-09-19T08:12:24;15.80;99.90
3275;DHT22;1649;53.672;10.064;2023-09-19T08:14:50;15.70;99.90
3275;DHT22;1649;53.672;10.064;2023-09-19T08:17:16;15.70;99.90
3275;DHT22;1649;53.672;10.064;2023-09-19T08:19:41;15.70;99.90
3275;DHT22;1649;53.672;10.064;2023-09-19T08:22:10;15.70;99.90
3275;DHT22;1649;53.672;10.064;2023-09-19T08:24:36;15.80;99.90
3275;DHT22;1649;53.672;10.064;2023-09-19T08:27:03;15.80;99.90
3275;DHT22;1649;53.672;10.064;2023-09-19T08:29:30;15.80;99.90
3275;DHT22;1649;53.672;10.064;2023-09-19T08:31:57;15.90;99.90
3275;DHT22;1649;53.672;10.064;2023-09-19T08:34:23;15.90;99.90
3275;DHT22;1649;53.672;10.064;2023-09-19T08:36:53;16.00;99.90
3275;DHT22;1649;53.672;10.064;2023-09-19T08:39:25;16.10;99.90
3275;DHT22;1649;53.672;10.064;2023-09-19T08:41:58;16.10;99.90
3275;DHT22;1649;53.672;10.064;2023-09-19T08:44:24;16.20;99.90
3275;DHT22;1649;53.672;10.064;2023-09-19T08:46:54;16.20;99.90
3275;DHT22;1649;53.672;10.064;2023-09-19T08:50:25;16.20;99.90
3275;DHT22;1649;53.672;10.064;2023-09-19T08:52:52;16.20;99.90
3275;DHT22;1649;53.672;10.064;2023-09-19T08:55:20;16.20;99.90
3275;DHT22;1649;53.672;10.064;2023-09-19T08:57:49;16.20;99.90
3275;DHT22;1649;53.672;10.064;2023-09-19T09:00:16;16.30;99.90
3275;DHT22;1649;53.672;10.064;2023-09-19T09:02:48;16.30;99.90
3275;DHT22;1649;53.672;10.064;2023-09-19T09:05:16;16.30;99.90
3275;DHT22;1649;53.672;10.064;2023-09-19T09:07:48;16.40;99.90
3275;DHT22;1649;53.672;10.064;2023-09-19T09:10:18;16.50;99.90
3275;DHT22;1649;53.672;10.064;2023-09-19T09:12:43;16.50;99.90
3275;DHT22;1649;53.672;10.064;2023-09-19T09:15:09;16.50;99.90
3275;DHT22;1649;53.672;10.064;2023-09-19T09:17:37;16.60;99.90
3275;DHT22;1649;53.672;10.064;2023-09-19T09:20:03;16.60;99.90
3275;DHT22;1649;53.672;10.064;2023-09-19T09:22:33;16.60;99.90
3275;DHT22;1649;53.672;10.064;2023-09-19T09:24:59;16.60;99.90
3275;DHT22;1649;53.672;10.064;2023-09-19T09:27:26;16.60;99.90
3275;DHT22;1649;53.672;10.064;2023-09-19T09:29:52;16.60;99.90
3275;DHT22;1649;53.672;10.064;2023-09-19T09:32:26;16.60;99.90
3275;DHT22;1649;53.672;10.064;2023-09-19T09:34:56;16.80;99.90
3275;DHT22;1649;53.672;10.064;2023-09-19T09:37:23;17.00;99.90
3275;DHT22;1649;53.672;10.064;2023-09-19T09:40:01;17.10;99.90
3275;DHT22;1649;53.672;10.064;2023-09-19T09:42:41;17.20;99.90
3275;DHT22;1649;53.672;10.064;2023-09-19T09:45:20;17.40;99.90
3275;DHT22;1649;53.672;10.064;2023-09-19T09:47:58;17.70;99.90
3275;DHT22;1649;53.672;10.064;2023-09-19T09:50:32;17.70;99.90
3275;DHT22;1649;53.672;10.064;2023-09-19T09:53:26;17.90;99.90
3275;DHT22;1649;53.672;10.064;2023-09-19T09:56:04;18.10;99.90
3275;DHT22;1649;53.672;10.064;2023-09-19T10:01:05;18.60;99.90
3275;DHT22;1649;53.672;10.064;2023-09-19T10:03:41;18.70;99.90
3275;DHT22;1649;53.672;10.064;2023-09-19T10:06:16;19.00;99.90
3275;DHT22;1649;53.672;10.064;2023-09-19T10:12:05;19.20;99.90
3275;DHT22;1649;53.672;10.064;2023-09-19T10:14:35;19.40;99.90
3275;DHT22;1649;53.672;10.064;2023-09-19T10:17:05;19.50;99.90
3275;DHT22;1649;53.672;10.064;2023-09-19T10:19:54;19.40;99.90
3275;DHT22;1649;53.672;10.064;2023-09-19T10:22:23;19.10;99.90
3275;DHT22;1649;53.672;10.064;2023-09-19T10:24:50;19.00;99.90
3275;DHT22;1649;53.672;10.064;2023-09-19T10:27:19;19.00;99.90
3275;DHT22;1649;53.672;10.064;2023-09-19T10:29:49;19.10;99.90
3275;DHT22;1649;53.672;10.064;2023-09-19T10:32:19;19.20;99.90
3275;DHT22;1649;53.672;10.064;2023-09-19T10:34:50;19.00;99.90
3275;DHT22;1649;53.672;10.064;2023-09-19T10:37:16;19.00;99.90
3275;DHT22;1649;53.672;10.064;2023-09-19T10:39:46;19.10;99.90
3275;DHT22;1649;53.672;10.064;2023-09-19T10:42:16;19.30;99.90
3275;DHT22;1649;53.672;10.064;2023-09-19T10:44:45;19.60;99.90
3275;DHT22;1649;53.672;10.064;2023-09-19T10:47:11;19.70;99.90
3275;DHT22;1649;53.672;10.064;2023-09-19T10:49:44;19.40;99.90
3275;DHT22;1649;53.672;10.064;2023-09-19T10:52:19;19.30;99.90
3275;DHT22;1649;53.672;10.064;2023-09-19T10:54:48;19.20;99.90
3275;DHT22;1649;53.672;10.064;2023-09-19T10:57:21;19.20;99.90
3275;DHT22;1649;53.672;10.064;2023-09-19T11:00:03;19.10;99.90
3275;DHT22;1649;53.672;10.064;2023-09-19T11:05:42;19.20;99.90
3275;DHT22;1649;53.672;10.064;2023-09-19T11:08:08;19.30;99.90
3275;DHT22;1649;53.672;10.064;2023-09-19T11:10:45;19.20;99.90
3275;DHT22;1649;53.672;10.064;2023-09-19T11:13:24;19.00;99.90
3275;DHT22;1649;53.672;10.064;2023-09-19T11:24:27;18.60;99.90
3275;DHT22;1649;53.672;10.064;2023-09-19T11:27:09;18.50;99.90
3275;DHT22;1649;53.672;10.064;2023-09-19T11:29:36;18.30;99.90
3275;DHT22;1649;53.672;10.064;2023-09-19T11:32:03;18.30;99.90
3275;DHT22;1649;53.672;10.064;2023-09-19T11:34:42;18.40;99.90
3275;DHT22;1649;53.672;10.064;2023-09-19T11:39:39;18.70;99.90
3275;DHT22;1649;53.672;10.064;2023-09-19T11:42:44;19.00;99.90
3275;DHT22;1649;53.672;10.064;2023-09-19T11:48:23;19.20;99.90
3275;DHT22;1649;53.672;10.064;2023-09-19T11:50:51;19.00;99.90
3275;DHT22;1649;53.672;10.064;2023-09-19T11:53:17;19.00;99.90
3275;DHT22;1649;53.672;10.064;2023-09-19T11:55:42;19.20;99.90
3275;DHT22;1649;53.672;10.064;2023-09-19T11:58:09;19.10;99.90
3275;DHT22;1649;53.672;10.064;2023-09-19T12:00:38;19.00;99.90
3275;DHT22;1649;53.672;10.064;2023-09-19T12:03:10;19.20;99.90
3275;DHT22;1649;53.672;10.064;2023-09-19T12:05:44;19.40;99.90
3275;DHT22;1649;53.672;10.064;2023-09-19T12:08:09;19.50;99.90
3275;DHT22;1649;53.672;10.064;2023-09-19T12:10:55;19.30;99.90
3275;DHT22;1649;53.672;10.064;2023-09-19T12:13:21;19.50;99.90
3275;DHT22;1649;53.672;10.064;2023-09-19T12:15:47;19.50;99.60
3275;DHT22;1649;53.672;10.064;2023-09-19T12:18:28;19.40;99.90
3275;DHT22;1649;53.672;10.064;2023-09-19T12:21:00;19.40;99.90
3275;DHT22;1649;53.672;10.064;2023-09-19T12:23:30;19.50;99.90
3275;DHT22;1649;53.672;10.064;2023-09-19T12:25:55;19.60;99.90
3275;DHT22;1649;53.672;10.064;2023-09-19T12:28:25;19.40;99.80
3275;DHT22;1649;53.672;10.064;2023-09-19T12:30:52;19.30;99.90
3275;DHT22;1649;53.672;10.064;2023-09-19T12:33:20;19.40;99.90
3275;DHT22;1649;53.672;10.064;2023-09-19T12:35:50;19.40;99.90
3275;DHT22;1649;53.672;10.064;2023-09-19T12:38:25;19.50;99.70
3275;DHT22;1649;53.672;10.064;2023-09-19T12:40:56;19.50;99.10
3275;DHT22;1649;53.672;10.064;2023-09-19T12:43:24;19.60;99.30
3275;DHT22;1649;53.672;10.064;2023-09-19T12:45:50;19.70;97.80
3275;DHT22;1649;53.672;10.064;2023-09-19T12:48:25;19.70;98.60
3275;DHT22;1649;53.672;10.064;2023-09-19T12:51:06;19.80;96.50
3275;DHT22;1649;53.672;10.064;2023-09-19T12:53:38;19.70;97.20
3275;DHT22;1649;53.672;10.064;2023-09-19T12:56:18;19.70;98.10
3275;DHT22;1649;53.672;10.064;2023-09-19T12:58:54;19.70;97.20
3275;DHT22;1649;53.672;10.064;2023-09-19T13:01:21;19.80;97.80
3275;DHT22;1649;53.672;10.064;2023-09-19T13:04:21;19.90;98.40
3275;DHT22;1649;53.672;10.064;2023-09-19T13:06:58;19.60;97.90
3275;DHT22;1649;53.672;10.064;2023-09-19T13:09:27;19.40;98.50
3275;DHT22;1649;53.672;10.064;2023-09-19T13:12:04;19.50;99.90
3275;DHT22;1649;53.672;10.064;2023-09-19T13:14:30;19.60;98.80
3275;DHT22;1649;53.672;10.064;2023-09-19T13:17:08;19.70;99.40
3275;DHT22;1649;53.672;10.064;2023-09-19T13:19:47;19.80;99.20
3275;DHT22;1649;53.672;10.064;2023-09-19T13:22:39;20.00;97.90
3275;DHT22;1649;53.672;10.064;2023-09-19T13:25:10;20.00;97.90
3275;DHT22;1649;53.672;10.064;2023-09-19T13:27:50;19.90;97.20
3275;DHT22;1649;53.672;10.064;2023-09-19T13:30:18;19.80;97.10
3275;DHT22;1649;53.672;10.064;2023-09-19T13:32:44;19.70;97.80
3275;DHT22;1649;53.672;10.064;2023-09-19T13:35:11;19.50;96.60
3275;DHT22;1649;53.672;10.064;2023-09-19T13:37:38;19.40;97.50
3275;DHT22;1649;53.672;10.064;2023-09-19T13:40:10;19.40;97.50
3275;DHT22;1649;53.672;10.064;2023-09-19T13:42:37;19.30;97.90
3275;DHT22;1649;53.672;10.064;2023-09-19T13:45:03;19.20;98.20
3275;DHT22;1649;53.672;10.064;2023-09-19T13:47:33;19.10;98.30
3275;DHT22;1649;53.672;10.064;2023-09-19T13:50:00;18.90;97.70
3275;DHT22;1649;53.672;10.064;2023-09-19T13:52:26;18.80;98.30
3275;DHT22;1649;53.672;10.064;2023-09-19T13:54:54;18.90;99.20
3275;DHT22;1649;53.672;10.064;2023-09-19T13:57:22;19.00;98.40
3275;DHT22;1649;53.672;10.064;2023-09-19T13:59:48;19.00;97.80
3275;DHT22;1649;53.672;10.064;2023-09-19T14:02:13;19.00;97.20
3275;DHT22;1649;53.672;10.064;2023-09-19T14:04:39;19.00;97.30
3275;DHT22;1649;53.672;10.064;2023-09-19T14:07:05;19.10;96.80
3275;DHT22;1649;53.672;10.064;2023-09-19T14:09:32;19.10;97.10
3275;DHT22;1649;53.672;10.064;2023-09-19T14:11:59;19.10;97.00
3275;DHT22;1649;53.672;10.064;2023-09-19T14:14:24;19.20;97.80
3275;DHT22;1649;53.672;10.064;2023-09-19T14:16:50;19.20;97.20
3275;DHT22;1649;53.672;10.064;2023-09-19T14:19:17;19.10;96.70
3275;DHT22;1649;53.672;10.064;2023-09-19T14:21:43;19.10;98.60
3275;DHT22;1649;53.672;10.064;2023-09-19T14:24:09;19.30;98.40
3275;DHT22;1649;53.672;10.064;2023-09-19T14:26:38;19.30;97.50
3275;DHT22;1649;53.672;10.064;2023-09-19T14:29:03;19.20;97.90
3275;DHT22;1649;53.672;10.064;2023-09-19T14:31:29;19.10;97.40
3275;DHT22;1649;53.672;10.064;2023-09-19T14:33:55;19.10;98.00
3275;DHT22;1649;53.672;10.064;2023-09-19T14:36:22;19.00;97.70
3275;DHT22;1649;53.672;10.064;2023-09-19T14:38:48;19.00;98.00
3275;DHT22;1649;53.672;10.064;2023-09-19T14:41:19;19.10;98.20
3275;DHT22;1649;53.672;10.064;2023-09-19T14:43:44;19.10;98.00
3275;DHT22;1649;53.672;10.064;2023-09-19T14:46:09;19.10;97.70
3275;DHT22;1649;53.672;10.064;2023-09-19T14:48:36;19.10;97.40
3275;DHT22;1649;53.672;10.064;2023-09-19T14:51:05;19.00;98.40
3275;DHT22;1649;53.672;10.064;2023-09-19T14:53:32;19.00;98.50
3275;DHT22;1649;53.672;10.064;2023-09-19T14:56:03;19.00;98.60
3275;DHT22;1649;53.672;10.064;2023-09-19T14:58:32;19.00;98.70
3275;DHT22;1649;53.672;10.064;2023-09-19T15:01:06;19.00;99.50
3275;DHT22;1649;53.672;10.064;2023-09-19T15:03:35;19.00;98.60
3275;DHT22;1649;53.672;10.064;2023-09-19T15:06:06;18.90;99.10
3275;DHT22;1649;53.672;10.064;2023-09-19T15:08:36;18.80;99.60
3275;DHT22;1649;53.672;10.064;2023-09-19T15:11:09;18.80;99.80
3275;DHT22;1649;53.672;10.064;2023-09-19T15:13:36;18.90;99.90
3275;DHT22;1649;53.672;10.064;2023-09-19T15:16:06;19.00;99.90
3275;DHT22;1649;53.672;10.064;2023-09-19T15:18:35;18.90;99.90
3275;DHT22;1649;53.672;10.064;2023-09-19T15:21:06;18.80;99.90
3275;DHT22;1649;53.672;10.064;2023-09-19T15:23:35;18.80;99.90
3275;DHT22;1649;53.672;10.064;2023-09-19T15:26:06;18.70;99.90
3275;DHT22;1649;53.672;10.064;2023-09-19T15:28:32;18.70;99.90
3275;DHT22;1649;53.672;10.064;2023-09-19T15:31:10;18.70;99.90
3275;DHT22;1649;53.672;10.064;2023-09-19T15:33:36;18.70;99.90
3275;DHT22;1649;53.672;10.064;2023-09-19T15:36:06;18.70;99.90
3275;DHT22;1649;53.672;10.064;2023-09-19T15:39:05;18.70;99.90
3275;DHT22;1649;53.672;10.064;2023-09-19T15:41:38;18.70;99.90
3275;DHT22;1649;53.672;10.064;2023-09-19T15:44:04;18.70;99.90
3275;DHT22;1649;53.672;10.064;2023-09-19T15:46:31;18.70;99.90
3275;DHT22;1649;53.672;10.064;2023-09-19T15:49:00;18.70;99.90
3275;DHT22;1649;53.672;10.064;2023-09-19T15:51:25;18.60;99.90
3275;DHT22;1649;53.672;10.064;2023-09-19T15:53:53;18.60;99.90
3275;DHT22;1649;53.672;10.064;2023-09-19T15:56:19;18.50;99.90
3275;DHT22;1649;53.672;10.064;2023-09-19T15:58:53;18.50;99.90
3275;DHT22;1649;53.672;10.064;2023-09-19T16:01:19;18.50;99.90
3275;DHT22;1649;53.672;10.064;2023-09-19T16:03:49;18.50;99.90
3275;DHT22;1649;53.672;10.064;2023-09-19T16:06:16;18.50;99.90
3275;DHT22;1649;53.672;10.064;2023-09-19T16:08:45;18.50;99.90
3275;DHT22;1649;53.672;10.064;2023-09-19T16:11:12;18.50;99.90
3275;DHT22;1649;53.672;10.064;2023-09-19T16:13:39;18.40;99.90
3275;DHT22;1649;53.672;10.064;2023-09-19T16:16:05;18.40;99.90
3275;DHT22;1649;53.672;10.064;2023-09-19T16:18:31;18.40;99.90
3275;DHT22;1649;53.672;10.064;2023-09-19T16:21:02;18.40;99.90
3275;DHT22;1649;53.672;10.064;2023-09-19T16:23:28;18.40;99.90
3275;DHT22;1649;53.672;10.064;2023-09-19T16:26:01;18.40;99.90
3275;DHT22;1649;53.672;10.064;2023-09-19T16:28:26;18.40;99.90